Time;durP1;ratioP1;P1;durP2;ratioP2;P2;SDS_P1;SDS_P2;PMS_P1;PMS_P2;Temp;Humidity;BMP_temperature;BMP_pressure;BME280_temperature;BME280_humidity;BME280_pressure;Samples;Min_cycle;Max_cycle;Signal;HPM_P1;HPM_P2
2023/02/12 00:00:14;;;;;;;;;;;;;;;26.85;34.03;95880.72;5006609;28;9457;-62
2023/02/12 00:02:53;;;;;;;;;;;;;;;26.84;33.07;95865.41;4986620;28;7143;-61
2023/02/12 00:05:20;;;;;;;;;;;;;;;26.84;33.75;95871.69;4994489;28;9433;-61
2023/02/12 00:07:58;;;;;;;;;;;;;;;26.85;34.03;95875.22;5026825;28;7288;-61
2023/02/12 00:10:44;;;;;;;;;;;;;;;26.83;33.62;95875.69;4993333;28;7295;-61
2023/02/12 00:13:13;;;;;;;;;;;;;;;26.86;33.61;95871.22;5010198;28;8866;-62
2023/02/12 00:15:41;;;;;;;;;;;;;;;26.83;33.56;95877.69;4993956;28;9497;-61
2023/02/12 00:18:10;;;;;;;;;;;;;;;26.82;33.76;95879.69;4991772;28;7029;-61
2023/02/12 00:20:37;;;;;;;;;;;;;;;26.84;34.27;95873.69;5010071;28;9376;-61
2023/02/12 00:23:04;;;;;;;;;;;;;;;26.79;33.54;95874.38;5000013;28;8732;-61
2023/02/12 00:25:31;;;;;;;;;;;;;;;26.75;33.51;95866.28;5007685;28;9110;-62
2023/02/12 00:27:59;;;;;;;;;;;;;;;26.74;34.32;95867.56;5025027;28;8701;-61
2023/02/12 00:30:30;;;;;;;;;;;;;;;26.78;33.95;95862.56;5008668;28;9044;-61
2023/02/12 00:33:02;;;;;;;;;;;;;;;26.79;32.86;95855.06;5025709;28;8992;-62
2023/02/12 00:35:33;;;;;;;;;;;;;;;26.78;33.39;95857.06;5026892;28;7390;-62
2023/02/12 00:38:00;;;;;;;;;;;;;;;26.78;33.96;95861.81;5009839;28;9226;-62
2023/02/12 00:40:27;;;;;;;;;;;;;;;26.74;34.20;95855.75;5028349;28;7027;-61
2023/02/12 00:42:58;;;;;;;;;;;;;;;26.74;33.70;95852.97;5028844;28;7291;-62
2023/02/12 00:45:24;;;;;;;;;;;;;;;26.72;34.17;95855.44;5030585;28;7500;-62
2023/02/12 00:47:51;;;;;;;;;;;;;;;26.75;33.75;95857.28;5032108;28;9238;-61
2023/02/12 00:50:17;;;;;;;;;;;;;;;26.70;34.02;95863.44;5014798;28;9407;-61
2023/02/12 00:52:51;;;;;;;;;;;;;;;26.72;33.50;95872.78;5031142;28;7266;-61
2023/02/12 00:55:23;;;;;;;;;;;;;;;26.71;33.79;95871.25;5030971;28;7202;-61
2023/02/12 00:58:00;;;;;;;;;;;;;;;26.69;34.29;95875.72;5031329;28;7174;-61
2023/02/12 01:00:26;;;;;;;;;;;;;;;26.64;34.20;95873.66;5014802;28;7040;-62
2023/02/12 01:03:02;;;;;;;;;;;;;;;26.60;33.84;95878.63;5031144;28;8652;-61
2023/02/12 01:06:06;;;;;;;;;;;;;;;26.58;34.64;95881.09;5015742;28;7340;-61
2023/02/12 01:08:37;;;;;;;;;;;;;;;26.55;33.63;95877.31;5031310;28;8718;-61
2023/02/12 01:11:21;;;;;;;;;;;;;;;26.52;34.32;95867.22;5031628;28;9030;-61
2023/02/12 01:13:59;;;;;;;;;;;;;;;26.54;34.32;95878.53;5030695;28;7228;-61
2023/02/12 01:16:54;;;;;;;;;;;;;;;26.52;33.88;95871.97;5015649;28;7195;-61
2023/02/12 01:19:45;;;;;;;;;;;;;;;26.51;34.65;95864.97;4992573;28;7232;-62
2023/02/12 01:22:28;;;;;;;;;;;;;;;26.48;33.96;95865.91;4974016;28;7033;-61
2023/02/12 01:25:11;;;;;;;;;;;;;;;26.43;34.08;95870.13;4994718;28;8992;-61
2023/02/12 01:27:47;;;;;;;;;;;;;;;26.46;34.45;95882.19;4997448;28;7132;-62
2023/02/12 01:30:42;;;;;;;;;;;;;;;26.45;34.59;95884.19;4982110;28;6989;-62
2023/02/12 01:33:30;;;;;;;;;;;;;;;26.42;34.79;95876.13;4916882;29;9290;-62
2023/02/12 01:36:25;;;;;;;;;;;;;;;26.39;34.72;95860.53;4899663;29;7657;-62
2023/02/12 01:38:57;;;;;;;;;;;;;;;26.39;34.38;95863.28;4851904;29;7266;-61
2023/02/12 01:41:38;;;;;;;;;;;;;;;26.34;34.51;95856.44;4856703;29;9172;-61
2023/02/12 01:44:29;;;;;;;;;;;;;;;26.36;34.29;95858.75;4860851;29;9073;-62
2023/02/12 01:47:01;;;;;;;;;;;;;;;26.33;34.37;95851.41;4866172;29;7943;-62
2023/02/12 01:49:47;;;;;;;;;;;;;;;26.33;35.26;95857.69;4849923;29;7071;-62
2023/02/12 01:52:55;;;;;;;;;;;;;;;26.34;35.10;95850.19;4847614;29;7019;-62
2023/02/12 01:55:23;;;;;;;;;;;;;;;26.32;34.99;95853.41;4810565;29;9141;-62
2023/02/12 01:57:58;;;;;;;;;;;;;;;26.30;34.81;95850.38;4823575;29;7032;-62
2023/02/12 02:00:38;;;;;;;;;;;;;;;26.29;34.54;95856.38;4823300;29;8967;-61
2023/02/12 02:03:06;;;;;;;;;;;;;;;26.30;35.17;95860.63;4822942;29;9092;-61
2023/02/12 02:06:11;;;;;;;;;;;;;;;26.26;34.90;95855.34;4826085;29;7347;-61
2023/02/12 02:09:06;;;;;;;;;;;;;;;26.29;34.76;95861.91;4789432;29;7248;-61
2023/02/12 02:14:34;;;;;;;;;;;;;;;26.27;34.54;95867.13;4824331;29;7185;-62
2023/02/12 02:17:28;;;;;;;;;;;;;;;26.26;35.00;95860.09;4854056;29;7072;-61
2023/02/12 02:20:03;;;;;;;;;;;;;;;26.25;34.52;95848.31;4860827;29;9026;-62
2023/02/12 02:22:36;;;;;;;;;;;;;;;26.23;34.92;95844.50;4869599;29;7046;-61
2023/02/12 02:25:33;;;;;;;;;;;;;;;26.23;35.34;95841.75;4868485;29;7092;-62
2023/02/12 02:28:42;;;;;;;;;;;;;;;26.23;34.94;95827.97;4947949;28;7150;-61
2023/02/12 02:31:31;;;;;;;;;;;;;;;26.21;35.33;95822.91;4933947;28;7049;-61
2023/02/12 02:34:09;;;;;;;;;;;;;;;26.19;35.51;95827.41;4929068;29;8636;-62
2023/02/12 02:36:55;;;;;;;;;;;;;;;26.19;35.47;95830.16;4939630;28;9399;-62
2023/02/12 02:39:37;;;;;;;;;;;;;;;26.20;35.54;95826.16;4914808;29;9530;-61
2023/02/12 02:42:56;;;;;;;;;;;;;;;26.21;35.67;95833.19;4957457;28;7026;-61
2023/02/12 02:45:47;;;;;;;;;;;;;;;26.19;35.39;95824.66;5007073;28;7450;-61
2023/02/12 02:48:31;;;;;;;;;;;;;;;26.18;34.69;95826.66;4992530;28;7288;-62
2023/02/12 02:51:30;;;;;;;;;;;;;;;26.19;34.99;95832.94;4995768;28;7709;-61
2023/02/12 02:54:10;;;;;;;;;;;;;;;26.18;34.97;95829.41;5027200;28;8765;-62
2023/02/12 02:56:42;;;;;;;;;;;;;;;26.15;35.57;95822.09;4986002;28;7274;-61
2023/02/12 02:59:20;;;;;;;;;;;;;;;26.16;34.72;95824.34;5001091;28;7118;-62
2023/02/12 03:06:04;;;;;;;;;;;;;;;26.18;34.74;95826.66;4972185;28;8613;-61
2023/02/12 03:08:39;;;;;;;;;;;;;;;26.19;35.37;95830.16;4924674;29;8814;-62
2023/02/12 03:11:23;;;;;;;;;;;;;;;26.15;35.48;95828.38;4933215;29;9377;-62
2023/02/12 03:14:23;;;;;;;;;;;;;;;26.14;35.64;95826.81;4916896;29;9079;-61
2023/02/12 03:17:05;;;;;;;;;;;;;;;26.13;35.06;95816.28;4876977;29;9516;-61
2023/02/12 03:19:43;;;;;;;;;;;;;;;26.12;35.06;95817.53;4861689;29;7264;-62
2023/02/12 03:22:35;;;;;;;;;;;;;;;26.11;35.00;95818.75;4854927;29;7826;-61
2023/02/12 03:25:22;;;;;;;;;;;;;;;26.11;35.06;95827.03;4857168;29;7271;-61
2023/02/12 03:28:25;;;;;;;;;;;;;;;26.10;35.34;95820.00;4843424;29;7252;-62
2023/02/12 03:31:39;;;;;;;;;;;;;;;26.10;34.92;95818.00;4840218;29;9752;-62
2023/02/12 03:34:31;;;;;;;;;;;;;;;26.11;35.66;95825.03;4838512;29;7059;-61
2023/02/12 03:37:45;;;;;;;;;;;;;;;26.10;35.28;95820.75;4833066;29;7070;-61
2023/02/12 03:40:39;;;;;;;;;;;;;;;26.10;35.33;95825.50;4839946;29;9198;-62
2023/02/12 03:43:43;;;;;;;;;;;;;;;26.10;35.70;95817.22;4877035;29;8977;-61
2023/02/12 03:46:46;;;;;;;;;;;;;;;26.09;35.28;95824.78;4895898;29;9343;-62
2023/02/12 03:49:45;;;;;;;;;;;;;;;26.05;35.36;95813.16;4896032;29;9686;-61
2023/02/12 03:52:44;;;;;;;;;;;;;;;26.06;35.03;95814.66;4898676;28;9059;-61
2023/02/12 03:55:11;;;;;;;;;;;;;;;26.07;34.98;95820.94;4936218;28;7284;-62
2023/02/12 03:58:00;;;;;;;;;;;;;;;26.06;35.68;95820.19;4941746;28;9982;-62
2023/02/12 04:00:29;;;;;;;;;;;;;;;26.05;35.31;95815.16;4925834;29;7406;-62
2023/02/12 04:02:56;;;;;;;;;;;;;;;26.05;34.95;95824.19;4926751;29;7061;-62
2023/02/12 04:05:25;;;;;;;;;;;;;;;26.05;34.68;95813.16;4921991;29;8949;-61
2023/02/12 04:08:08;;;;;;;;;;;;;;;26.05;35.58;95818.66;4983941;28;7052;-62
2023/02/12 04:10:59;;;;;;;;;;;;;;;26.07;34.74;95815.44;4968978;28;7106;-62
2023/02/12 04:13:41;;;;;;;;;;;;;;;26.06;35.37;95814.66;4993682;28;8140;-62
2023/02/12 04:16:28;;;;;;;;;;;;;;;26.07;35.64;95821.72;4989019;28;9067;-61
2023/02/12 04:18:55;;;;;;;;;;;;;;;26.06;35.66;95827.69;4984707;28;7301;-62
2023/02/12 04:25:12;;;;;;;;;;;;;;;26.05;35.23;95823.41;5001501;28;9089;-62
2023/02/12 04:28:01;;;;;;;;;;;;;;;26.04;34.75;95828.16;4994627;28;7463;-62
2023/02/12 04:30:41;;;;;;;;;;;;;;;26.03;35.36;95832.16;4993151;28;8746;-62
2023/02/12 04:33:16;;;;;;;;;;;;;;;26.04;35.06;95836.44;5009909;28;10172;-62
2023/02/12 04:35:59;;;;;;;;;;;;;;;26.05;35.15;95837.97;4995711;28;7143;-61
2023/02/12 04:38:36;;;;;;;;;;;;;;;26.04;34.72;95832.91;5028269;28;7941;-62
2023/02/12 04:41:08;;;;;;;;;;;;;;;26.04;34.76;95838.44;5016039;28;7677;-61
2023/02/12 04:43:37;;;;;;;;;;;;;;;26.04;35.14;95836.44;5032174;28;7182;-62
2023/02/12 04:46:13;;;;;;;;;;;;;;;26.03;35.21;95832.16;5032024;28;7284;-61
2023/02/12 04:48:59;;;;;;;;;;;;;;;26.02;34.84;95833.41;5013816;28;7106;-62
2023/02/12 04:51:25;;;;;;;;;;;;;;;26.01;35.58;95834.63;5014717;28;7650;-61
2023/02/12 04:53:58;;;;;;;;;;;;;;;26.00;35.44;95827.63;5030443;28;8738;-61
2023/02/12 04:56:24;;;;;;;;;;;;;;;26.01;34.77;95831.88;5011172;28;7042;-61
2023/02/12 04:58:56;;;;;;;;;;;;;;;26.01;35.29;95839.41;5012620;28;8508;-61
2023/02/12 05:01:24;;;;;;;;;;;;;;;26.02;35.06;95841.69;5031277;28;8801;-61
2023/02/12 05:04:17;;;;;;;;;;;;;;;26.01;35.25;95840.16;5031442;28;8996;-61
2023/02/12 05:07:13;;;;;;;;;;;;;;;26.01;34.82;95837.38;4991060;28;7052;-61
2023/02/12 05:09:46;;;;;;;;;;;;;;;26.02;34.66;95835.41;4985500;28;7387;-62
2023/02/12 05:12:12;;;;;;;;;;;;;;;25.99;35.16;95836.38;4977228;28;7263;-61
2023/02/12 05:14:41;;;;;;;;;;;;;;;26.01;34.96;95845.66;4993106;28;7100;-62
2023/02/12 05:17:40;;;;;;;;;;;;;;;26.01;34.58;95845.66;4985438;28;8923;-61
2023/02/12 05:20:22;;;;;;;;;;;;;;;25.99;35.52;95837.09;4993847;28;8176;-62
2023/02/12 05:22:51;;;;;;;;;;;;;;;26.01;35.22;95856.69;4976545;28;7048;-62
2023/02/12 05:25:31;;;;;;;;;;;;;;;26.01;34.61;95853.19;4974641;28;7020;-62
2023/02/12 05:28:00;;;;;;;;;;;;;;;26.01;35.17;95847.69;4991707;28;7505;-62
2023/02/12 05:30:28;;;;;;;;;;;;;;;26.00;35.31;95841.41;4987788;28;7289;-62
2023/02/12 05:32:54;;;;;;;;;;;;;;;26.00;35.73;95843.38;4989088;28;9050;-61
2023/02/12 05:35:20;;;;;;;;;;;;;;;25.99;35.23;95850.91;4982006;28;9178;-61
2023/02/12 05:37:52;;;;;;;;;;;;;;;26.01;35.14;95853.94;4990133;28;9690;-62
2023/02/12 05:40:19;;;;;;;;;;;;;;;25.99;35.77;95848.13;4970101;28;9021;-62
2023/02/12 05:42:45;;;;;;;;;;;;;;;25.99;35.12;95845.38;4976403;28;8743;-61
2023/02/12 05:45:20;;;;;;;;;;;;;;;26.00;35.26;95843.38;5026533;28;9130;-61
2023/02/12 05:47:49;;;;;;;;;;;;;;;25.99;35.23;95842.63;5032989;28;7042;-61
2023/02/12 05:50:16;;;;;;;;;;;;;;;26.00;35.47;95838.63;5012621;28;7666;-61
2023/02/12 05:52:44;;;;;;;;;;;;;;;25.99;35.00;95839.88;5009423;28;7311;-61
2023/02/12 05:55:12;;;;;;;;;;;;;;;25.97;35.63;95838.81;5024628;28;7679;-61
2023/02/12 05:57:38;;;;;;;;;;;;;;;25.98;35.47;95838.38;5027900;28;7713;-61
2023/02/12 06:00:07;;;;;;;;;;;;;;;25.98;34.92;95832.84;5004905;28;9047;-62
2023/02/12 06:02:36;;;;;;;;;;;;;;;25.98;35.38;95834.84;5027450;28;8723;-61
2023/02/12 06:05:03;;;;;;;;;;;;;;;25.98;35.52;95835.59;5007626;28;7136;-61
2023/02/12 06:07:30;;;;;;;;;;;;;;;26.00;34.45;95832.34;5013668;28;7294;-61
2023/02/12 06:10:03;;;;;;;;;;;;;;;26.02;34.51;95835.41;5026609;28;9100;-62
2023/02/12 06:12:29;;;;;;;;;;;;;;;25.98;34.46;95827.34;5025452;28;7290;-62
2023/02/12 06:14:55;;;;;;;;;;;;;;;25.97;34.84;95828.56;5026851;28;9228;-62
2023/02/12 06:17:23;;;;;;;;;;;;;;;25.99;34.66;95830.84;5017265;28;9064;-62
2023/02/12 06:19:50;;;;;;;;;;;;;;;25.95;34.88;95831.03;5010835;28;9540;-63
2023/02/12 06:22:37;;;;;;;;;;;;;;;25.98;35.29;95830.09;5030298;28;9204;-63
2023/02/12 06:25:07;;;;;;;;;;;;;;;25.99;35.17;95825.34;5013393;28;7283;-62
2023/02/12 06:27:43;;;;;;;;;;;;;;;25.98;35.16;95830.09;5029459;28;7010;-63
2023/02/12 06:30:10;;;;;;;;;;;;;;;26.00;35.40;95832.34;5025952;28;7041;-62
2023/02/12 06:32:38;;;;;;;;;;;;;;;25.98;35.40;95830.09;5021604;28;9032;-62
2023/02/12 06:35:04;;;;;;;;;;;;;;;25.98;34.68;95819.06;5006348;28;7843;-62
2023/02/12 06:37:31;;;;;;;;;;;;;;;25.99;34.37;95817.81;5027000;28;8265;-62
2023/02/12 06:40:16;;;;;;;;;;;;;;;25.99;34.83;95826.06;5005776;28;7022;-62
2023/02/12 06:42:44;;;;;;;;;;;;;;;25.98;34.50;95830.09;5027911;28;9109;-62
2023/02/12 06:45:10;;;;;;;;;;;;;;;25.97;35.42;95834.06;5011984;28;9187;-62
2023/02/12 06:47:36;;;;;;;;;;;;;;;25.99;35.00;95828.09;5027995;28;9365;-63
2023/02/12 06:50:05;;;;;;;;;;;;;;;25.97;35.17;95842.34;5008293;28;7059;-62
2023/02/12 06:52:32;;;;;;;;;;;;;;;25.98;35.02;95832.84;5013088;28;9191;-62
2023/02/12 06:55:00;;;;;;;;;;;;;;;25.99;35.46;95842.63;5005644;28;8789;-62
2023/02/12 06:57:39;;;;;;;;;;;;;;;26.00;35.88;95837.88;5028700;28;9084;-63
2023/02/12 07:00:34;;;;;;;;;;;;;;;26.06;35.18;95842.22;5011409;28;7281;-62
2023/02/12 07:02:59;;;;;;;;;;;;;;;26.06;34.65;95836.72;5003669;28;9031;-62
2023/02/12 07:05:27;;;;;;;;;;;;;;;26.01;35.20;95834.63;5026486;28;9050;-62
2023/02/12 07:08:00;;;;;;;;;;;;;;;26.03;35.57;95834.91;5028368;28;9002;-62
2023/02/12 07:11:01;;;;;;;;;;;;;;;26.02;34.90;95838.91;5028015;28;9228;-62
2023/02/12 07:13:36;;;;;;;;;;;;;;;26.01;34.93;95844.91;5024574;28;9273;-62
2023/02/12 07:16:15;;;;;;;;;;;;;;;26.01;35.00;95845.66;5024273;28;6997;-62
2023/02/12 07:18:49;;;;;;;;;;;;;;;26.03;35.97;95847.97;5012695;28;9100;-62
2023/02/12 07:22:00;;;;;;;;;;;;;;;26.06;35.77;95846.97;5009260;28;7314;-62
2023/02/12 07:24:30;;;;;;;;;;;;;;;26.02;35.56;95844.44;4926065;29;7247;-62
2023/02/12 07:26:57;;;;;;;;;;;;;;;26.04;35.41;95847.47;4916409;29;9111;-62
2023/02/12 07:29:34;;;;;;;;;;;;;;;26.05;35.98;95846.25;4911331;29;7054;-62
2023/02/12 07:32:13;;;;;;;;;;;;;;;26.04;35.70;95850.22;4918248;29;9416;-62
2023/02/12 07:34:46;;;;;;;;;;;;;;;26.05;35.41;95846.25;4915488;29;7260;-62
2023/02/12 07:37:21;;;;;;;;;;;;;;;26.09;35.51;95844.06;4926493;29;7230;-62
2023/02/12 07:39:50;;;;;;;;;;;;;;;26.09;35.26;95848.81;4923590;29;7012;-62
2023/02/12 07:42:17;;;;;;;;;;;;;;;26.07;35.99;95854.78;4917527;29;9085;-63
2023/02/12 07:45:12;;;;;;;;;;;;;;;26.08;36.37;95850.03;4928399;29;9013;-62
2023/02/12 07:47:55;;;;;;;;;;;;;;;26.07;35.97;95852.03;4909201;29;9566;-62
2023/02/12 07:50:36;;;;;;;;;;;;;;;26.04;36.04;95846.69;4922872;29;8563;-62
2023/02/12 07:53:11;;;;;;;;;;;;;;;26.02;36.26;95855.47;4910135;29;7359;-62
2023/02/12 07:55:48;;;;;;;;;;;;;;;26.02;36.37;95855.47;4913680;29;7061;-62
2023/02/12 07:58:41;;;;;;;;;;;;;;;26.06;35.49;95844.22;4929201;29;7195;-62
2023/02/12 08:01:16;;;;;;;;;;;;;;;26.07;35.69;95838.25;4950323;28;7094;-61
2023/02/12 08:04:02;;;;;;;;;;;;;;;26.11;35.40;95836.06;5025555;28;9013;-61
2023/02/12 08:06:31;;;;;;;;;;;;;;;26.10;35.40;95840.06;5014058;28;7112;-62
2023/02/12 08:09:17;;;;;;;;;;;;;;;26.09;35.98;95835.81;5026885;28;9271;-62
2023/02/12 08:11:54;;;;;;;;;;;;;;;26.10;36.12;95842.81;5025876;28;8689;-61
2023/02/12 08:14:39;;;;;;;;;;;;;;;26.11;35.27;95844.34;5013025;28;9038;-61
2023/02/12 08:17:07;;;;;;;;;;;;;;;26.10;35.93;95842.81;5030181;28;7003;-62
2023/02/12 08:20:08;;;;;;;;;;;;;;;26.15;35.46;95849.66;5024224;28;9035;-61
2023/02/12 08:22:53;;;;;;;;;;;;;;;26.23;35.05;95848.00;4975274;28;8988;-61
2023/02/12 08:25:49;;;;;;;;;;;;;;;26.24;35.89;95857.03;4965376;28;7043;-61
2023/02/12 08:28:22;;;;;;;;;;;;;;;26.26;35.48;95854.56;4946527;29;7277;-62
2023/02/12 08:31:03;;;;;;;;;;;;;;;26.30;34.98;95857.88;4938953;29;7332;-62
2023/02/12 08:33:30;;;;;;;;;;;;;;;26.32;35.29;95860.94;4948888;28;7471;-61
2023/02/12 08:36:08;;;;;;;;;;;;;;;26.31;34.90;95862.94;4946004;29;7258;-62
2023/02/12 08:38:35;;;;;;;;;;;;;;;26.35;34.96;95862.72;4927084;29;7350;-62
2023/02/12 08:41:17;;;;;;;;;;;;;;;26.34;35.61;95861.97;4939240;29;6988;-61
2023/02/12 08:43:44;;;;;;;;;;;;;;;26.35;35.61;95865.47;4939999;28;7746;-62
2023/02/12 08:46:17;;;;;;;;;;;;;;;26.34;35.74;95863.97;4946642;28;7022;-62
2023/02/12 08:48:44;;;;;;;;;;;;;;;26.32;35.58;95858.19;4942070;28;7036;-62
2023/02/12 08:51:17;;;;;;;;;;;;;;;26.32;35.50;95852.66;4947152;28;9054;-61
2023/02/12 08:53:45;;;;;;;;;;;;;;;26.28;35.26;95841.06;4938122;28;7130;-62
2023/02/12 08:56:16;;;;;;;;;;;;;;;26.27;35.55;95856.09;4941001;28;7030;-62
2023/02/12 08:58:48;;;;;;;;;;;;;;;26.25;35.79;95847.53;4982832;28;9481;-61
2023/02/12 09:01:19;;;;;;;;;;;;;;;26.25;35.96;95847.53;4965685;28;7046;-62
2023/02/12 09:04:22;;;;;;;;;;;;;;;26.25;35.72;95850.31;4973466;28;7258;-61
2023/02/12 09:07:16;;;;;;;;;;;;;;;26.28;35.30;95846.56;4957127;28;8766;-62
2023/02/12 09:10:20;;;;;;;;;;;;;;;26.28;35.63;95841.06;4958055;28;9101;-62
2023/02/12 09:12:54;;;;;;;;;;;;;;;26.25;35.44;95836.50;4952781;28;7280;-61
2023/02/12 09:15:38;;;;;;;;;;;;;;;26.26;36.06;95838.03;4949412;28;7277;-62
2023/02/12 09:18:04;;;;;;;;;;;;;;;26.31;35.29;95840.09;4964132;28;9164;-61
2023/02/12 09:21:18;;;;;;;;;;;;;;;26.34;35.96;95836.41;4964236;28;7707;-61
2023/02/12 09:23:55;;;;;;;;;;;;;;;26.36;35.21;95831.16;4967053;28;7058;-61
2023/02/12 09:26:41;;;;;;;;;;;;;;;26.39;35.20;95830.16;4963741;28;9243;-61
2023/02/12 09:29:07;;;;;;;;;;;;;;;26.38;35.25;95828.66;4950951;28;8248;-61
2023/02/12 09:31:33;;;;;;;;;;;;;;;26.42;34.78;95834.75;4955779;28;8750;-61
2023/02/12 09:34:11;;;;;;;;;;;;;;;26.42;35.15;95837.50;4951685;28;7031;-61
2023/02/12 09:36:45;;;;;;;;;;;;;;;26.44;34.45;95832.25;4948112;28;7505;-61
2023/02/12 09:39:17;;;;;;;;;;;;;;;26.42;35.15;95831.97;4964383;28;7263;-61
2023/02/12 09:42:02;;;;;;;;;;;;;;;26.43;35.18;95827.97;5006962;28;7584;-61
2023/02/12 09:44:34;;;;;;;;;;;;;;;26.49;34.76;95839.84;5030529;28;8721;-61
2023/02/12 09:47:34;;;;;;;;;;;;;;;26.52;34.42;95830.59;5029800;28;7121;-61
2023/02/12 09:50:31;;;;;;;;;;;;;;;26.54;34.59;95836.38;4969267;28;7042;-61
2023/02/12 09:52:59;;;;;;;;;;;;;;;26.53;35.01;95834.88;4973139;28;7250;-61
2023/02/12 09:55:30;;;;;;;;;;;;;;;26.52;34.35;95838.88;4986641;28;7050;-61
2023/02/12 09:58:03;;;;;;;;;;;;;;;26.53;34.70;95832.13;4985400;28;6872;-61
2023/02/12 10:00:31;;;;;;;;;;;;;;;26.54;34.96;95825.34;4968254;28;9022;-61
2023/02/12 10:03:03;;;;;;;;;;;;;;;26.55;35.25;95827.66;4969119;28;6970;-61
2023/02/12 10:05:43;;;;;;;;;;;;;;;26.54;34.71;95830.88;4970921;28;9102;-61
2023/02/12 10:08:32;;;;;;;;;;;;;;;26.58;34.85;95832.19;4987540;28;9268;-61
2023/02/12 10:11:36;;;;;;;;;;;;;;;26.59;34.86;95839.22;4976717;28;7120;-62
2023/02/12 10:14:33;;;;;;;;;;;;;;;26.58;34.58;95836.94;4976413;28;9718;-61
2023/02/12 10:17:36;;;;;;;;;;;;;;;26.58;35.34;95839.69;4990181;28;9064;-61
2023/02/12 10:20:23;;;;;;;;;;;;;;;26.59;34.78;95833.72;4964246;28;7321;-61
2023/02/12 10:23:19;;;;;;;;;;;;;;;26.61;34.88;95836.75;4983146;28;7213;-61
2023/02/12 10:25:58;;;;;;;;;;;;;;;26.60;35.43;95840.00;4988883;28;8966;-61
2023/02/12 10:29:07;;;;;;;;;;;;;;;26.61;34.58;95827.69;5031375;28;7472;-61
2023/02/12 10:31:39;;;;;;;;;;;;;;;26.62;35.15;95823.72;5008466;28;7288;-61
2023/02/12 10:34:24;;;;;;;;;;;;;;;26.63;35.26;95830.75;5004110;28;7336;-61
2023/02/12 10:36:54;;;;;;;;;;;;;;;26.64;34.82;95824.72;5003423;28;7845;-61
2023/02/12 10:39:35;;;;;;;;;;;;;;;26.64;34.90;95829.50;5005294;28;8172;-62
2023/02/12 10:42:17;;;;;;;;;;;;;;;26.66;34.91;95824.25;4986970;28;7285;-61
2023/02/12 10:44:45;;;;;;;;;;;;;;;26.67;34.79;95823.78;5022819;28;8765;-61
2023/02/12 10:47:32;;;;;;;;;;;;;;;26.68;34.82;95821.78;4987803;28;7241;-61
2023/02/12 10:50:03;;;;;;;;;;;;;;;26.65;35.20;95808.94;4987887;28;7258;-61
2023/02/12 10:52:47;;;;;;;;;;;;;;;26.68;35.36;95821.78;4991816;28;7253;-61
2023/02/12 10:55:34;;;;;;;;;;;;;;;26.69;35.12;95809.47;5019958;28;9199;-61
2023/02/12 10:58:03;;;;;;;;;;;;;;;26.69;34.71;95801.97;4984574;28;9730;-61
2023/02/12 11:00:32;;;;;;;;;;;;;;;26.70;35.27;95802.72;5007698;28;9082;-61
2023/02/12 11:03:38;;;;;;;;;;;;;;;26.71;35.07;95795.94;5010831;28;7249;-61
2023/02/12 11:06:34;;;;;;;;;;;;;;;26.72;34.80;95797.47;4968950;28;9100;-61
2023/02/12 11:09:28;;;;;;;;;;;;;;;26.72;34.59;95795.47;4964089;28;7300;-61
2023/02/12 11:12:00;;;;;;;;;;;;;;;26.73;34.55;95788.00;4971612;28;7007;-61
2023/02/12 11:14:30;;;;;;;;;;;;;;;26.74;34.86;95793.03;4963573;28;9450;-61
2023/02/12 11:17:48;;;;;;;;;;;;;;;26.75;34.86;95786.25;4957453;28;9170;-61
2023/02/12 11:20:24;;;;;;;;;;;;;;;26.76;35.20;95789.78;4887270;29;9450;-61
2023/02/12 11:23:02;;;;;;;;;;;;;;;26.75;35.43;95780.72;4882240;29;9491;-62
2023/02/12 11:25:34;;;;;;;;;;;;;;;26.71;35.08;95771.88;4885242;29;7092;-61
2023/02/12 11:28:15;;;;;;;;;;;;;;;26.73;35.10;95768.69;4890225;29;9092;-61
2023/02/12 11:30:52;;;;;;;;;;;;;;;26.74;35.15;95778.47;4879890;29;7129;-61
2023/02/12 11:33:23;;;;;;;;;;;;;;;26.73;35.26;95768.69;4872753;29;8761;-61
2023/02/12 11:35:55;;;;;;;;;;;;;;;26.77;35.52;95760.94;4881855;29;9088;-61
2023/02/12 11:38:30;;;;;;;;;;;;;;;26.78;34.89;95763.19;4869873;29;8791;-61
2023/02/12 11:41:01;;;;;;;;;;;;;;;26.79;34.65;95767.50;4906449;29;7108;-62
2023/02/12 11:43:40;;;;;;;;;;;;;;;26.79;35.15;95773.00;4902842;29;7041;-62
2023/02/12 11:46:08;;;;;;;;;;;;;;;26.78;35.30;95774.25;4930438;29;9128;-61
2023/02/12 11:48:46;;;;;;;;;;;;;;;26.75;35.27;95769.69;4931427;29;9041;-61
2023/02/12 11:51:23;;;;;;;;;;;;;;;26.74;35.94;95770.94;4917564;29;8726;-62
2023/02/12 11:54:02;;;;;;;;;;;;;;;26.74;35.74;95770.19;4914348;29;9319;-61
2023/02/12 11:56:51;;;;;;;;;;;;;;;26.76;35.75;95767.69;4990900;28;8717;-61
2023/02/12 11:59:44;;;;;;;;;;;;;;;26.77;35.61;95760.94;5010213;28;7562;-61
2023/02/12 12:02:38;;;;;;;;;;;;;;;26.79;35.75;95758.44;5025267;28;7033;-61
2023/02/12 12:05:18;;;;;;;;;;;;;;;26.78;36.20;95759.69;5027677;28;7287;-61
2023/02/12 12:08:02;;;;;;;;;;;;;;;26.79;35.52;95747.41;5026893;28;7401;-61
2023/02/12 12:10:47;;;;;;;;;;;;;;;26.79;35.80;95747.41;5027100;28;7330;-62
2023/02/12 12:13:28;;;;;;;;;;;;;;;26.80;35.57;95744.16;5006917;28;7255;-61
2023/02/12 12:19:51;;;;;;;;;;;;;;;26.84;36.23;95739.16;4990246;28;7208;-61
2023/02/12 12:22:35;;;;;;;;;;;;;;;26.89;35.93;95729.44;4973284;28;9130;-62
2023/02/12 12:25:18;;;;;;;;;;;;;;;26.89;36.32;95730.19;4982988;28;9537;-61
2023/02/12 12:28:04;;;;;;;;;;;;;;;26.90;35.70;95733.72;4988342;28;9505;-62
2023/02/12 12:31:05;;;;;;;;;;;;;;;26.91;35.74;95729.69;4982920;28;9225;-61
2023/02/12 12:34:11;;;;;;;;;;;;;;;26.94;36.35;95733.50;4997672;28;7627;-62
2023/02/12 12:36:58;;;;;;;;;;;;;;;26.95;35.73;95735.00;4924926;29;8270;-61
2023/02/12 12:39:54;;;;;;;;;;;;;;;26.97;35.49;95736.03;4947817;28;8786;-61
2023/02/12 12:42:40;;;;;;;;;;;;;;;27.00;35.84;95735.06;4950339;28;7030;-61
2023/02/12 12:45:43;;;;;;;;;;;;;;;27.01;36.01;95731.06;4944515;28;9006;-61
2023/02/12 12:48:43;;;;;;;;;;;;;;;27.03;35.70;95722.28;4931420;28;9442;-61
2023/02/12 12:51:53;;;;;;;;;;;;;;;27.03;35.49;95727.81;4933056;28;8964;-61
2023/02/12 12:54:55;;;;;;;;;;;;;;;27.06;35.45;95724.81;4949826;28;9019;-61
2023/02/12 12:58:06;;;;;;;;;;;;;;;27.09;35.61;95721.09;4950278;28;7437;-62
2023/02/12 13:00:51;;;;;;;;;;;;;;;27.11;35.58;95720.59;4948322;28;8735;-62
2023/02/12 13:03:58;;;;;;;;;;;;;;;27.11;35.22;95724.09;4933000;28;7286;-62
2023/02/12 13:06:50;;;;;;;;;;;;;;;27.14;35.56;95717.63;4925478;29;7670;-63
2023/02/12 13:09:48;;;;;;;;;;;;;;;27.14;35.46;95711.34;4928786;28;7288;-61
2023/02/12 13:12:33;;;;;;;;;;;;;;;27.17;35.46;95704.81;4969035;28;7277;-61
2023/02/12 13:15:17;;;;;;;;;;;;;;;27.17;35.55;95711.09;4971818;28;9842;-62
2023/02/12 13:17:50;;;;;;;;;;;;;;;27.20;35.67;95714.91;4955985;28;9338;-62
2023/02/12 13:20:41;;;;;;;;;;;;;;;27.21;35.78;95706.09;4953564;28;9045;-61
2023/02/12 13:23:36;;;;;;;;;;;;;;;27.23;35.41;95703.59;4970541;28;9111;-62
2023/02/12 13:26:22;;;;;;;;;;;;;;;27.25;35.33;95706.63;4970390;28;8630;-62
2023/02/12 13:29:00;;;;;;;;;;;;;;;27.29;35.48;95711.97;4969349;28;7198;-62
2023/02/12 13:31:32;;;;;;;;;;;;;;;27.31;35.23;95709.47;4961895;28;7267;-61
2023/02/12 13:34:15;;;;;;;;;;;;;;;27.31;36.02;95709.47;4957027;28;7348;-61
2023/02/12 13:36:42;;;;;;;;;;;;;;;27.34;35.46;95709.22;4953490;28;7124;-61
2023/02/12 13:39:11;;;;;;;;;;;;;;;27.36;35.38;95706.03;4971103;28;9102;-61
2023/02/12 13:42:06;;;;;;;;;;;;;;;27.38;35.15;95709.78;4951851;28;9118;-61
2023/02/12 13:44:51;;;;;;;;;;;;;;;27.40;35.39;95710.06;5005646;28;7654;-62
2023/02/12 13:47:58;;;;;;;;;;;;;;;27.43;35.47;95711.84;5025743;28;7059;-62
2023/02/12 13:51:05;;;;;;;;;;;;;;;27.48;35.23;95702.84;4991101;28;7239;-61
2023/02/12 13:54:20;;;;;;;;;;;;;;;27.51;35.04;95699.06;5007865;28;10107;-61
2023/02/12 13:56:50;;;;;;;;;;;;;;;27.54;35.14;95698.09;4952519;28;7127;-62
2023/02/12 13:59:57;;;;;;;;;;;;;;;27.59;35.27;95702.16;5001948;28;9444;-62
2023/02/12 14:02:32;;;;;;;;;;;;;;;27.63;35.07;95697.91;4993126;28;9071;-61
2023/02/12 14:05:29;;;;;;;;;;;;;;;27.68;34.50;95701.19;4993821;28;7057;-61
2023/02/12 14:08:06;;;;;;;;;;;;;;;27.74;34.85;95701.97;4988045;28;9011;-61
2023/02/12 14:10:38;;;;;;;;;;;;;;;27.76;34.62;95703.00;5010053;28;7227;-61
2023/02/12 14:13:26;;;;;;;;;;;;;;;27.80;34.36;95706.28;5007031;28;8735;-61
2023/02/12 14:15:57;;;;;;;;;;;;;;;27.81;32.97;95705.06;4987640;28;9240;-61
2023/02/12 14:18:23;;;;;;;;;;;;;;;27.80;32.17;95700.75;5004041;28;7238;-61
2023/02/12 14:21:11;;;;;;;;;;;;;;;27.82;32.56;95706.56;4989262;28;7286;-62